sensor_id;sensor_type;location;lat;lon;timestamp;P1;durP1;ratioP1;P2;durP2;ratioP2
17794;SDS011;9021;50.882;4.326;2022-10-31T00:01:34;11.98;;;7.50;;
17794;SDS011;9021;50.882;4.326;2022-10-31T00:04:01;12.80;;;7.28;;
17794;SDS011;9021;50.882;4.326;2022-10-31T00:06:27;13.70;;;7.78;;
17794;SDS011;9021;50.882;4.326;2022-10-31T00:08:54;12.05;;;7.25;;
17794;SDS011;9021;50.882;4.326;2022-10-31T00:11:21;11.93;;;7.30;;
17794;SDS011;9021;50.882;4.326;2022-10-31T00:13:47;10.45;;;7.22;;
17794;SDS011;9021;50.882;4.326;2022-10-31T00:16:19;12.98;;;7.65;;
17794;SDS011;9021;50.882;4.326;2022-10-31T00:18:53;12.75;;;7.53;;
17794;SDS011;9021;50.882;4.326;2022-10-31T00:21:22;14.75;;;7.95;;
17794;SDS011;9021;50.882;4.326;2022-10-31T00:26:13;12.55;;;7.68;;
17794;SDS011;9021;50.882;4.326;2022-10-31T00:28:39;14.20;;;7.85;;
17794;SDS011;9021;50.882;4.326;2022-10-31T00:31:06;11.27;;;8.15;;
17794;SDS011;9021;50.882;4.326;2022-10-31T00:33:33;14.32;;;7.28;;
17794;SDS011;9021;50.882;4.326;2022-10-31T00:36:01;12.63;;;7.15;;
17794;SDS011;9021;50.882;4.326;2022-10-31T00:40:53;15.50;;;7.70;;
17794;SDS011;9021;50.882;4.326;2022-10-31T00:43:19;10.25;;;7.60;;
17794;SDS011;9021;50.882;4.326;2022-10-31T00:45:44;14.80;;;7.43;;
17794;SDS011;9021;50.882;4.326;2022-10-31T00:48:10;15.68;;;8.30;;
17794;SDS011;9021;50.882;4.326;2022-10-31T00:50:36;11.93;;;7.53;;
17794;SDS011;9021;50.882;4.326;2022-10-31T00:53:02;14.10;;;7.97;;
17794;SDS011;9021;50.882;4.326;2022-10-31T00:55:27;16.23;;;8.30;;
17794;SDS011;9021;50.882;4.326;2022-10-31T01:00:19;11.57;;;7.30;;
17794;SDS011;9021;50.882;4.326;2022-10-31T01:02:45;15.68;;;8.00;;
17794;SDS011;9021;50.882;4.326;2022-10-31T01:05:11;13.77;;;8.15;;
17794;SDS011;9021;50.882;4.326;2022-10-31T01:07:40;13.40;;;7.78;;
17794;SDS011;9021;50.882;4.326;2022-10-31T01:10:06;11.43;;;7.68;;
17794;SDS011;9021;50.882;4.326;2022-10-31T01:15:04;12.18;;;7.30;;
17794;SDS011;9021;50.882;4.326;2022-10-31T01:17:30;11.50;;;7.25;;
17794;SDS011;9021;50.882;4.326;2022-10-31T01:19:56;16.27;;;7.35;;
17794;SDS011;9021;50.882;4.326;2022-10-31T01:22:21;16.35;;;8.15;;
17794;SDS011;9021;50.882;4.326;2022-10-31T01:24:47;12.50;;;7.78;;
17794;SDS011;9021;50.882;4.326;2022-10-31T01:27:12;11.95;;;7.72;;
17794;SDS011;9021;50.882;4.326;2022-10-31T01:29:38;12.27;;;7.10;;
17794;SDS011;9021;50.882;4.326;2022-10-31T01:32:04;12.13;;;7.93;;
17794;SDS011;9021;50.882;4.326;2022-10-31T01:34:29;12.57;;;7.03;;
17794;SDS011;9021;50.882;4.326;2022-10-31T01:36:55;12.13;;;7.25;;
17794;SDS011;9021;50.882;4.326;2022-10-31T01:39:21;10.95;;;7.13;;
17794;SDS011;9021;50.882;4.326;2022-10-31T01:41:47;11.95;;;6.78;;
17794;SDS011;9021;50.882;4.326;2022-10-31T01:49:18;13.88;;;7.07;;
17794;SDS011;9021;50.882;4.326;2022-10-31T01:52:03;10.18;;;6.10;;
17794;SDS011;9021;50.882;4.326;2022-10-31T01:54:34;11.73;;;6.53;;
17794;SDS011;9021;50.882;4.326;2022-10-31T01:57:04;11.25;;;7.15;;
17794;SDS011;9021;50.882;4.326;2022-10-31T01:59:32;11.15;;;7.13;;
17794;SDS011;9021;50.882;4.326;2022-10-31T02:07:40;13.13;;;7.53;;
17794;SDS011;9021;50.882;4.326;2022-10-31T02:10:06;13.50;;;7.05;;
17794;SDS011;9021;50.882;4.326;2022-10-31T02:12:32;14.40;;;7.15;;
17794;SDS011;9021;50.882;4.326;2022-10-31T02:15:01;15.15;;;7.68;;
17794;SDS011;9021;50.882;4.326;2022-10-31T02:17:28;11.45;;;7.18;;
17794;SDS011;9021;50.882;4.326;2022-10-31T02:19:57;13.07;;;7.10;;
17794;SDS011;9021;50.882;4.326;2022-10-31T02:22:28;11.38;;;6.90;;
17794;SDS011;9021;50.882;4.326;2022-10-31T02:33:52;13.70;;;7.25;;
17794;SDS011;9021;50.882;4.326;2022-10-31T02:36:32;12.73;;;6.65;;
17794;SDS011;9021;50.882;4.326;2022-10-31T02:39:18;12.13;;;6.70;;
17794;SDS011;9021;50.882;4.326;2022-10-31T02:42:13;9.85;;;6.25;;
17794;SDS011;9021;50.882;4.326;2022-10-31T02:47:29;9.98;;;6.45;;
17794;SDS011;9021;50.882;4.326;2022-10-31T02:52:42;9.07;;;6.20;;
17794;SDS011;9021;50.882;4.326;2022-10-31T02:55:12;12.88;;;7.28;;
17794;SDS011;9021;50.882;4.326;2022-10-31T02:57:47;12.00;;;7.13;;
17794;SDS011;9021;50.882;4.326;2022-10-31T03:00:13;12.93;;;6.60;;
17794;SDS011;9021;50.882;4.326;2022-10-31T03:11:07;9.43;;;5.93;;
17794;SDS011;9021;50.882;4.326;2022-10-31T03:13:35;7.88;;;6.15;;
17794;SDS011;9021;50.882;4.326;2022-10-31T03:18:43;15.88;;;7.80;;
17794;SDS011;9021;50.882;4.326;2022-10-31T03:24:10;10.40;;;6.85;;
17794;SDS011;9021;50.882;4.326;2022-10-31T03:26:38;13.27;;;7.15;;
17794;SDS011;9021;50.882;4.326;2022-10-31T03:29:08;10.80;;;6.90;;
17794;SDS011;9021;50.882;4.326;2022-10-31T03:31:43;15.15;;;6.70;;
17794;SDS011;9021;50.882;4.326;2022-10-31T03:34:12;9.75;;;6.32;;
17794;SDS011;9021;50.882;4.326;2022-10-31T03:36:38;9.52;;;6.13;;
17794;SDS011;9021;50.882;4.326;2022-10-31T03:39:05;10.77;;;6.35;;
17794;SDS011;9021;50.882;4.326;2022-10-31T03:41:38;12.38;;;6.82;;
17794;SDS011;9021;50.882;4.326;2022-10-31T03:44:08;10.40;;;6.35;;
17794;SDS011;9021;50.882;4.326;2022-10-31T03:46:37;8.13;;;6.20;;
17794;SDS011;9021;50.882;4.326;2022-10-31T03:49:03;12.43;;;6.07;;
17794;SDS011;9021;50.882;4.326;2022-10-31T03:51:54;7.75;;;6.15;;
17794;SDS011;9021;50.882;4.326;2022-10-31T03:57:18;9.02;;;6.78;;
17794;SDS011;9021;50.882;4.326;2022-10-31T04:00:07;13.35;;;6.93;;
17794;SDS011;9021;50.882;4.326;2022-10-31T04:02:36;11.77;;;6.97;;
17794;SDS011;9021;50.882;4.326;2022-10-31T04:05:04;14.95;;;6.60;;
17794;SDS011;9021;50.882;4.326;2022-10-31T04:07:34;13.10;;;6.45;;
17794;SDS011;9021;50.882;4.326;2022-10-31T04:10:07;12.57;;;6.68;;
17794;SDS011;9021;50.882;4.326;2022-10-31T04:12:35;11.95;;;6.90;;
17794;SDS011;9021;50.882;4.326;2022-10-31T04:15:03;12.05;;;6.20;;
17794;SDS011;9021;50.882;4.326;2022-10-31T04:17:31;11.60;;;7.00;;
17794;SDS011;9021;50.882;4.326;2022-10-31T04:19:59;9.10;;;6.47;;
17794;SDS011;9021;50.882;4.326;2022-10-31T04:22:26;11.15;;;6.63;;
17794;SDS011;9021;50.882;4.326;2022-10-31T04:24:51;9.95;;;6.20;;
17794;SDS011;9021;50.882;4.326;2022-10-31T04:27:17;8.73;;;6.25;;
17794;SDS011;9021;50.882;4.326;2022-10-31T04:29:43;9.63;;;6.15;;
17794;SDS011;9021;50.882;4.326;2022-10-31T04:32:08;10.82;;;5.88;;
17794;SDS011;9021;50.882;4.326;2022-10-31T04:34:34;9.93;;;6.88;;
17794;SDS011;9021;50.882;4.326;2022-10-31T04:36:59;9.15;;;6.68;;
17794;SDS011;9021;50.882;4.326;2022-10-31T04:39:25;8.70;;;6.00;;
17794;SDS011;9021;50.882;4.326;2022-10-31T04:41:51;10.45;;;6.65;;
17794;SDS011;9021;50.882;4.326;2022-10-31T04:44:16;10.18;;;6.68;;
17794;SDS011;9021;50.882;4.326;2022-10-31T04:46:42;8.43;;;6.40;;
17794;SDS011;9021;50.882;4.326;2022-10-31T04:49:07;16.08;;;7.03;;
17794;SDS011;9021;50.882;4.326;2022-10-31T04:51:33;9.27;;;6.60;;
17794;SDS011;9021;50.882;4.326;2022-10-31T04:53:58;10.18;;;6.70;;
17794;SDS011;9021;50.882;4.326;2022-10-31T04:56:24;11.43;;;7.18;;
17794;SDS011;9021;50.882;4.326;2022-10-31T04:58:50;11.85;;;6.97;;
17794;SDS011;9021;50.882;4.326;2022-10-31T05:01:15;11.82;;;6.80;;
17794;SDS011;9021;50.882;4.326;2022-10-31T05:03:41;10.55;;;8.35;;
17794;SDS011;9021;50.882;4.326;2022-10-31T05:06:07;12.45;;;7.80;;
17794;SDS011;9021;50.882;4.326;2022-10-31T05:08:32;10.93;;;7.22;;
17794;SDS011;9021;50.882;4.326;2022-10-31T05:11:02;10.75;;;7.15;;
17794;SDS011;9021;50.882;4.326;2022-10-31T05:13:28;17.67;;;6.65;;
17794;SDS011;9021;50.882;4.326;2022-10-31T05:15:54;9.25;;;6.40;;
17794;SDS011;9021;50.882;4.326;2022-10-31T05:18:20;12.50;;;5.88;;
17794;SDS011;9021;50.882;4.326;2022-10-31T05:20:46;10.45;;;6.50;;
17794;SDS011;9021;50.882;4.326;2022-10-31T05:23:11;13.43;;;7.28;;
17794;SDS011;9021;50.882;4.326;2022-10-31T05:25:37;13.45;;;7.63;;
17794;SDS011;9021;50.882;4.326;2022-10-31T05:28:04;11.55;;;7.65;;
17794;SDS011;9021;50.882;4.326;2022-10-31T05:30:30;14.38;;;7.28;;
17794;SDS011;9021;50.882;4.326;2022-10-31T05:32:56;12.27;;;6.97;;
17794;SDS011;9021;50.882;4.326;2022-10-31T05:35:25;9.20;;;6.88;;
17794;SDS011;9021;50.882;4.326;2022-10-31T05:37:52;13.27;;;7.43;;
17794;SDS011;9021;50.882;4.326;2022-10-31T05:40:18;10.40;;;6.80;;
17794;SDS011;9021;50.882;4.326;2022-10-31T05:42:45;12.32;;;7.28;;
17794;SDS011;9021;50.882;4.326;2022-10-31T05:47:38;14.15;;;6.65;;
17794;SDS011;9021;50.882;4.326;2022-10-31T05:50:04;10.50;;;6.95;;
17794;SDS011;9021;50.882;4.326;2022-10-31T05:52:30;11.10;;;7.28;;
17794;SDS011;9021;50.882;4.326;2022-10-31T05:54:56;9.23;;;7.65;;
17794;SDS011;9021;50.882;4.326;2022-10-31T05:57:22;9.50;;;7.25;;
17794;SDS011;9021;50.882;4.326;2022-10-31T05:59:47;11.40;;;7.10;;
17794;SDS011;9021;50.882;4.326;2022-10-31T06:02:13;9.65;;;6.80;;
17794;SDS011;9021;50.882;4.326;2022-10-31T06:04:39;11.43;;;6.63;;
17794;SDS011;9021;50.882;4.326;2022-10-31T06:07:04;10.13;;;6.82;;
17794;SDS011;9021;50.882;4.326;2022-10-31T06:09:30;10.40;;;7.00;;
17794;SDS011;9021;50.882;4.326;2022-10-31T06:11:55;12.52;;;7.32;;
17794;SDS011;9021;50.882;4.326;2022-10-31T06:14:21;9.45;;;6.70;;
17794;SDS011;9021;50.882;4.326;2022-10-31T06:16:46;10.95;;;7.60;;
17794;SDS011;9021;50.882;4.326;2022-10-31T06:19:12;11.18;;;7.95;;
17794;SDS011;9021;50.882;4.326;2022-10-31T06:21:38;10.88;;;7.38;;
17794;SDS011;9021;50.882;4.326;2022-10-31T06:24:03;12.68;;;7.13;;
17794;SDS011;9021;50.882;4.326;2022-10-31T06:26:29;10.10;;;7.90;;
17794;SDS011;9021;50.882;4.326;2022-10-31T06:28:55;14.40;;;9.07;;
17794;SDS011;9021;50.882;4.326;2022-10-31T06:31:20;13.40;;;7.15;;
17794;SDS011;9021;50.882;4.326;2022-10-31T06:33:46;12.48;;;7.65;;
17794;SDS011;9021;50.882;4.326;2022-10-31T06:36:11;12.77;;;7.70;;
17794;SDS011;9021;50.882;4.326;2022-10-31T06:38:37;14.88;;;8.20;;
17794;SDS011;9021;50.882;4.326;2022-10-31T06:41:03;11.35;;;8.40;;
17794;SDS011;9021;50.882;4.326;2022-10-31T06:43:30;14.60;;;8.18;;
17794;SDS011;9021;50.882;4.326;2022-10-31T06:45:56;15.85;;;7.50;;
17794;SDS011;9021;50.882;4.326;2022-10-31T06:48:21;12.07;;;7.63;;
17794;SDS011;9021;50.882;4.326;2022-10-31T06:50:47;9.02;;;7.03;;
17794;SDS011;9021;50.882;4.326;2022-10-31T06:53:13;13.32;;;7.25;;
17794;SDS011;9021;50.882;4.326;2022-10-31T06:55:39;12.40;;;6.95;;
17794;SDS011;9021;50.882;4.326;2022-10-31T06:58:06;10.32;;;7.60;;
17794;SDS011;9021;50.882;4.326;2022-10-31T07:00:33;10.38;;;7.30;;
17794;SDS011;9021;50.882;4.326;2022-10-31T07:03:03;10.48;;;7.35;;
17794;SDS011;9021;50.882;4.326;2022-10-31T07:05:33;11.55;;;7.35;;
17794;SDS011;9021;50.882;4.326;2022-10-31T07:08:00;12.77;;;7.78;;
17794;SDS011;9021;50.882;4.326;2022-10-31T07:10:30;14.68;;;8.38;;
17794;SDS011;9021;50.882;4.326;2022-10-31T07:12:58;13.70;;;8.13;;
17794;SDS011;9021;50.882;4.326;2022-10-31T07:15:26;13.20;;;8.75;;
17794;SDS011;9021;50.882;4.326;2022-10-31T07:17:53;14.57;;;8.60;;
17794;SDS011;9021;50.882;4.326;2022-10-31T07:20:18;11.15;;;8.32;;
17794;SDS011;9021;50.882;4.326;2022-10-31T07:22:44;14.80;;;9.02;;
17794;SDS011;9021;50.882;4.326;2022-10-31T07:25:10;17.10;;;9.05;;
17794;SDS011;9021;50.882;4.326;2022-10-31T07:27:36;12.32;;;8.70;;
17794;SDS011;9021;50.882;4.326;2022-10-31T07:30:03;13.70;;;8.95;;
17794;SDS011;9021;50.882;4.326;2022-10-31T07:32:39;19.30;;;8.40;;
17794;SDS011;9021;50.882;4.326;2022-10-31T07:35:10;17.40;;;8.65;;
17794;SDS011;9021;50.882;4.326;2022-10-31T07:37:37;11.52;;;8.50;;
17794;SDS011;9021;50.882;4.326;2022-10-31T07:42:34;14.57;;;8.45;;
17794;SDS011;9021;50.882;4.326;2022-10-31T07:45:04;15.65;;;8.10;;
17794;SDS011;9021;50.882;4.326;2022-10-31T07:47:37;19.02;;;9.25;;
17794;SDS011;9021;50.882;4.326;2022-10-31T07:50:04;15.55;;;9.18;;
17794;SDS011;9021;50.882;4.326;2022-10-31T07:52:30;12.80;;;8.30;;
17794;SDS011;9021;50.882;4.326;2022-10-31T07:54:55;18.75;;;9.50;;
17794;SDS011;9021;50.882;4.326;2022-10-31T07:57:21;16.48;;;9.20;;
17794;SDS011;9021;50.882;4.326;2022-10-31T07:59:47;15.35;;;9.60;;
17794;SDS011;9021;50.882;4.326;2022-10-31T08:02:12;17.85;;;9.48;;
17794;SDS011;9021;50.882;4.326;2022-10-31T08:04:38;12.63;;;8.93;;
17794;SDS011;9021;50.882;4.326;2022-10-31T08:07:04;17.08;;;9.60;;
17794;SDS011;9021;50.882;4.326;2022-10-31T08:09:29;18.80;;;9.30;;
17794;SDS011;9021;50.882;4.326;2022-10-31T08:11:55;15.25;;;9.57;;
17794;SDS011;9021;50.882;4.326;2022-10-31T08:14:20;17.98;;;10.45;;
17794;SDS011;9021;50.882;4.326;2022-10-31T08:16:47;15.85;;;9.95;;
17794;SDS011;9021;50.882;4.326;2022-10-31T08:19:13;17.85;;;10.40;;
17794;SDS011;9021;50.882;4.326;2022-10-31T08:21:38;19.77;;;11.45;;
17794;SDS011;9021;50.882;4.326;2022-10-31T08:24:04;20.27;;;10.63;;
17794;SDS011;9021;50.882;4.326;2022-10-31T08:28:56;19.10;;;10.18;;
17794;SDS011;9021;50.882;4.326;2022-10-31T08:31:22;15.90;;;10.50;;
17794;SDS011;9021;50.882;4.326;2022-10-31T08:33:48;16.13;;;11.00;;
17794;SDS011;9021;50.882;4.326;2022-10-31T08:36:13;29.88;;;11.35;;
17794;SDS011;9021;50.882;4.326;2022-10-31T08:38:39;13.55;;;9.98;;
17794;SDS011;9021;50.882;4.326;2022-10-31T08:41:05;17.83;;;10.00;;
17794;SDS011;9021;50.882;4.326;2022-10-31T08:43:30;18.00;;;10.70;;
17794;SDS011;9021;50.882;4.326;2022-10-31T08:45:56;15.73;;;10.50;;
17794;SDS011;9021;50.882;4.326;2022-10-31T08:48:21;17.02;;;10.55;;
17794;SDS011;9021;50.882;4.326;2022-10-31T08:50:47;13.25;;;10.35;;
17794;SDS011;9021;50.882;4.326;2022-10-31T08:53:14;14.80;;;10.20;;
17794;SDS011;9021;50.882;4.326;2022-10-31T08:55:44;24.08;;;11.32;;
17794;SDS011;9021;50.882;4.326;2022-10-31T08:58:11;13.15;;;10.52;;
17794;SDS011;9021;50.882;4.326;2022-10-31T09:00:39;13.90;;;10.60;;
17794;SDS011;9021;50.882;4.326;2022-10-31T09:03:06;17.83;;;11.48;;
17794;SDS011;9021;50.882;4.326;2022-10-31T09:05:35;13.05;;;10.38;;
17794;SDS011;9021;50.882;4.326;2022-10-31T09:08:01;11.23;;;9.35;;
17794;SDS011;9021;50.882;4.326;2022-10-31T09:10:28;13.23;;;9.13;;
17794;SDS011;9021;50.882;4.326;2022-10-31T09:13:02;13.95;;;9.25;;
17794;SDS011;9021;50.882;4.326;2022-10-31T09:15:31;13.80;;;9.48;;
17794;SDS011;9021;50.882;4.326;2022-10-31T09:17:58;13.52;;;9.30;;
17794;SDS011;9021;50.882;4.326;2022-10-31T09:20:25;16.42;;;9.18;;
17794;SDS011;9021;50.882;4.326;2022-10-31T09:22:55;11.52;;;8.68;;
17794;SDS011;9021;50.882;4.326;2022-10-31T09:25:29;14.40;;;9.45;;
17794;SDS011;9021;50.882;4.326;2022-10-31T09:27:55;17.02;;;8.77;;
17794;SDS011;9021;50.882;4.326;2022-10-31T09:30:22;12.95;;;9.20;;
17794;SDS011;9021;50.882;4.326;2022-10-31T09:32:48;15.10;;;9.95;;
17794;SDS011;9021;50.882;4.326;2022-10-31T09:35:13;14.48;;;9.95;;
17794;SDS011;9021;50.882;4.326;2022-10-31T09:37:39;15.60;;;9.70;;
17794;SDS011;9021;50.882;4.326;2022-10-31T09:40:04;17.27;;;10.55;;
17794;SDS011;9021;50.882;4.326;2022-10-31T09:45:17;14.05;;;9.70;;
17794;SDS011;9021;50.882;4.326;2022-10-31T09:48:03;13.85;;;9.23;;
17794;SDS011;9021;50.882;4.326;2022-10-31T09:50:45;12.50;;;9.07;;
17794;SDS011;9021;50.882;4.326;2022-10-31T09:56:02;10.30;;;9.10;;
17794;SDS011;9021;50.882;4.326;2022-10-31T09:58:42;13.38;;;9.77;;
17794;SDS011;9021;50.882;4.326;2022-10-31T10:01:15;14.02;;;10.70;;
17794;SDS011;9021;50.882;4.326;2022-10-31T10:04:19;16.90;;;9.23;;
17794;SDS011;9021;50.882;4.326;2022-10-31T10:06:58;20.73;;;9.40;;
17794;SDS011;9021;50.882;4.326;2022-10-31T10:09:44;11.75;;;8.45;;
17794;SDS011;9021;50.882;4.326;2022-10-31T10:12:25;13.23;;;8.80;;
17794;SDS011;9021;50.882;4.326;2022-10-31T10:17:50;11.90;;;7.72;;
17794;SDS011;9021;50.882;4.326;2022-10-31T10:20:31;10.70;;;7.82;;
17794;SDS011;9021;50.882;4.326;2022-10-31T10:26:01;10.85;;;6.47;;
17794;SDS011;9021;50.882;4.326;2022-10-31T10:28:49;11.70;;;7.10;;
17794;SDS011;9021;50.882;4.326;2022-10-31T10:31:26;12.73;;;7.45;;
17794;SDS011;9021;50.882;4.326;2022-10-31T10:33:57;12.05;;;7.15;;
17794;SDS011;9021;50.882;4.326;2022-10-31T10:39:20;12.43;;;6.95;;
17794;SDS011;9021;50.882;4.326;2022-10-31T10:41:53;15.43;;;7.07;;
17794;SDS011;9021;50.882;4.326;2022-10-31T10:47:27;10.75;;;6.85;;
17794;SDS011;9021;50.882;4.326;2022-10-31T10:50:20;10.50;;;6.68;;
17794;SDS011;9021;50.882;4.326;2022-10-31T10:53:12;11.15;;;7.40;;
17794;SDS011;9021;50.882;4.326;2022-10-31T10:58:55;14.23;;;7.18;;
17794;SDS011;9021;50.882;4.326;2022-10-31T11:01:22;12.10;;;7.40;;
17794;SDS011;9021;50.882;4.326;2022-10-31T11:03:48;11.85;;;7.03;;
17794;SDS011;9021;50.882;4.326;2022-10-31T11:08:47;12.82;;;7.70;;
17794;SDS011;9021;50.882;4.326;2022-10-31T11:13:42;9.07;;;7.43;;
17794;SDS011;9021;50.882;4.326;2022-10-31T11:17:06;15.75;;;8.02;;
17794;SDS011;9021;50.882;4.326;2022-10-31T11:19:05;9.40;;;7.70;;
17794;SDS011;9021;50.882;4.326;2022-10-31T11:21:33;13.40;;;7.47;;
17794;SDS011;9021;50.882;4.326;2022-10-31T11:26:34;13.15;;;7.30;;
17794;SDS011;9021;50.882;4.326;2022-10-31T11:29:00;13.13;;;6.72;;
17794;SDS011;9021;50.882;4.326;2022-10-31T11:31:30;10.57;;;7.05;;
17794;SDS011;9021;50.882;4.326;2022-10-31T11:33:59;13.68;;;7.38;;
17794;SDS011;9021;50.882;4.326;2022-10-31T11:36:31;14.88;;;7.40;;
17794;SDS011;9021;50.882;4.326;2022-10-31T11:39:03;16.55;;;8.45;;
17794;SDS011;9021;50.882;4.326;2022-10-31T11:41:38;22.67;;;8.93;;
17794;SDS011;9021;50.882;4.326;2022-10-31T11:44:05;12.45;;;7.63;;
17794;SDS011;9021;50.882;4.326;2022-10-31T11:46:47;11.02;;;6.50;;
17794;SDS011;9021;50.882;4.326;2022-10-31T11:49:21;16.88;;;7.47;;
17794;SDS011;9021;50.882;4.326;2022-10-31T11:51:57;17.40;;;7.93;;
17794;SDS011;9021;50.882;4.326;2022-10-31T11:54:27;14.32;;;7.15;;
17794;SDS011;9021;50.882;4.326;2022-10-31T11:57:00;13.93;;;6.95;;
17794;SDS011;9021;50.882;4.326;2022-10-31T11:59:28;14.00;;;7.53;;
17794;SDS011;9021;50.882;4.326;2022-10-31T12:01:56;11.18;;;7.18;;
17794;SDS011;9021;50.882;4.326;2022-10-31T12:04:29;17.67;;;7.05;;
17794;SDS011;9021;50.882;4.326;2022-10-31T12:07:01;13.73;;;7.15;;
17794;SDS011;9021;50.882;4.326;2022-10-31T12:09:28;15.15;;;6.93;;
17794;SDS011;9021;50.882;4.326;2022-10-31T12:14:33;11.77;;;6.90;;
17794;SDS011;9021;50.882;4.326;2022-10-31T12:25:45;11.25;;;5.93;;
17794;SDS011;9021;50.882;4.326;2022-10-31T12:47:55;10.13;;;5.82;;
17794;SDS011;9021;50.882;4.326;2022-10-31T12:56:18;15.30;;;6.38;;
17794;SDS011;9021;50.882;4.326;2022-10-31T12:59:07;17.85;;;5.75;;
17794;SDS011;9021;50.882;4.326;2022-10-31T13:01:50;11.80;;;5.07;;
17794;SDS011;9021;50.882;4.326;2022-10-31T13:04:31;9.73;;;4.53;;
17794;SDS011;9021;50.882;4.326;2022-10-31T13:07:04;11.18;;;5.10;;
17794;SDS011;9021;50.882;4.326;2022-10-31T13:09:43;9.85;;;4.68;;
17794;SDS011;9021;50.882;4.326;2022-10-31T13:12:32;8.93;;;4.65;;
17794;SDS011;9021;50.882;4.326;2022-10-31T13:15:01;10.52;;;4.53;;
17794;SDS011;9021;50.882;4.326;2022-10-31T13:17:33;12.88;;;4.63;;
17794;SDS011;9021;50.882;4.326;2022-10-31T13:23:03;11.63;;;4.97;;
17794;SDS011;9021;50.882;4.326;2022-10-31T13:25:39;10.57;;;4.30;;
17794;SDS011;9021;50.882;4.326;2022-10-31T13:28:12;17.17;;;4.68;;
17794;SDS011;9021;50.882;4.326;2022-10-31T13:30:56;11.23;;;5.05;;
17794;SDS011;9021;50.882;4.326;2022-10-31T13:38:34;16.15;;;5.43;;
17794;SDS011;9021;50.882;4.326;2022-10-31T13:41:12;10.40;;;4.60;;
17794;SDS011;9021;50.882;4.326;2022-10-31T13:46:45;11.18;;;4.90;;
17794;SDS011;9021;50.882;4.326;2022-10-31T13:54:50;10.70;;;4.45;;
17794;SDS011;9021;50.882;4.326;2022-10-31T13:57:38;15.68;;;5.38;;
17794;SDS011;9021;50.882;4.326;2022-10-31T14:00:24;11.85;;;4.70;;
17794;SDS011;9021;50.882;4.326;2022-10-31T14:02:51;12.60;;;4.93;;
17794;SDS011;9021;50.882;4.326;2022-10-31T14:07:50;10.23;;;5.18;;
17794;SDS011;9021;50.882;4.326;2022-10-31T14:13:42;21.48;;;5.32;;
17794;SDS011;9021;50.882;4.326;2022-10-31T14:15:51;16.65;;;4.97;;
17794;SDS011;9021;50.882;4.326;2022-10-31T14:20:57;14.73;;;5.53;;
17794;SDS011;9021;50.882;4.326;2022-10-31T14:26:05;20.23;;;12.30;;
17794;SDS011;9021;50.882;4.326;2022-10-31T14:28:51;11.88;;;4.80;;
17794;SDS011;9021;50.882;4.326;2022-10-31T14:31:32;10.45;;;5.50;;
17794;SDS011;9021;50.882;4.326;2022-10-31T14:45:27;16.15;;;4.97;;
17794;SDS011;9021;50.882;4.326;2022-10-31T14:50:52;10.75;;;4.40;;
17794;SDS011;9021;50.882;4.326;2022-10-31T14:53:26;14.07;;;4.72;;
17794;SDS011;9021;50.882;4.326;2022-10-31T14:55:53;13.70;;;4.13;;
17794;SDS011;9021;50.882;4.326;2022-10-31T14:58:25;13.30;;;3.92;;
17794;SDS011;9021;50.882;4.326;2022-10-31T15:01:04;8.75;;;3.75;;
17794;SDS011;9021;50.882;4.326;2022-10-31T15:03:38;13.07;;;4.00;;
17794;SDS011;9021;50.882;4.326;2022-10-31T15:06:12;11.00;;;4.60;;
17794;SDS011;9021;50.882;4.326;2022-10-31T15:11:18;15.68;;;4.10;;
17794;SDS011;9021;50.882;4.326;2022-10-31T15:13:47;18.95;;;4.97;;
17794;SDS011;9021;50.882;4.326;2022-10-31T15:16:24;17.77;;;4.25;;
17794;SDS011;9021;50.882;4.326;2022-10-31T15:18:55;12.73;;;4.43;;
17794;SDS011;9021;50.882;4.326;2022-10-31T15:21:23;15.15;;;6.03;;
17794;SDS011;9021;50.882;4.326;2022-10-31T15:23:51;12.73;;;5.90;;
17794;SDS011;9021;50.882;4.326;2022-10-31T15:26:19;13.63;;;5.93;;
17794;SDS011;9021;50.882;4.326;2022-10-31T15:29:04;14.07;;;4.88;;
17794;SDS011;9021;50.882;4.326;2022-10-31T15:31:31;12.38;;;4.80;;
17794;SDS011;9021;50.882;4.326;2022-10-31T15:34:15;13.43;;;5.50;;
17794;SDS011;9021;50.882;4.326;2022-10-31T15:36:47;12.20;;;5.65;;
17794;SDS011;9021;50.882;4.326;2022-10-31T15:39:14;14.13;;;5.35;;
17794;SDS011;9021;50.882;4.326;2022-10-31T15:44:32;14.90;;;5.50;;
17794;SDS011;9021;50.882;4.326;2022-10-31T15:47:04;14.73;;;5.38;;
17794;SDS011;9021;50.882;4.326;2022-10-31T15:49:39;15.75;;;6.07;;
17794;SDS011;9021;50.882;4.326;2022-10-31T15:54:43;15.55;;;6.47;;
17794;SDS011;9021;50.882;4.326;2022-10-31T15:57:15;17.52;;;5.97;;
17794;SDS011;9021;50.882;4.326;2022-10-31T15:59:42;15.93;;;6.50;;
17794;SDS011;9021;50.882;4.326;2022-10-31T16:02:12;17.13;;;5.97;;
17794;SDS011;9021;50.882;4.326;2022-10-31T16:07:47;19.88;;;6.85;;
17794;SDS011;9021;50.882;4.326;2022-10-31T16:10:21;18.02;;;7.38;;
17794;SDS011;9021;50.882;4.326;2022-10-31T16:12:50;13.73;;;6.50;;
17794;SDS011;9021;50.882;4.326;2022-10-31T16:15:17;23.65;;;7.90;;
17794;SDS011;9021;50.882;4.326;2022-10-31T16:17:45;16.92;;;7.25;;
17794;SDS011;9021;50.882;4.326;2022-10-31T16:20:31;16.92;;;8.02;;
17794;SDS011;9021;50.882;4.326;2022-10-31T16:22:58;17.23;;;8.68;;
17794;SDS011;9021;50.882;4.326;2022-10-31T16:25:26;19.67;;;8.20;;
17794;SDS011;9021;50.882;4.326;2022-10-31T16:28:04;17.42;;;7.90;;
17794;SDS011;9021;50.882;4.326;2022-10-31T16:30:41;17.98;;;8.13;;
17794;SDS011;9021;50.882;4.326;2022-10-31T16:41:21;16.48;;;8.32;;
17794;SDS011;9021;50.882;4.326;2022-10-31T16:43:47;19.95;;;9.38;;
17794;SDS011;9021;50.882;4.326;2022-10-31T16:46:23;29.40;;;9.02;;
17794;SDS011;9021;50.882;4.326;2022-10-31T16:48:50;23.52;;;7.85;;
17794;SDS011;9021;50.882;4.326;2022-10-31T16:51:16;14.07;;;8.23;;
17794;SDS011;9021;50.882;4.326;2022-10-31T16:53:42;19.63;;;8.25;;
17794;SDS011;9021;50.882;4.326;2022-10-31T16:56:18;20.70;;;7.95;;
17794;SDS011;9021;50.882;4.326;2022-10-31T16:58:51;21.63;;;8.50;;
17794;SDS011;9021;50.882;4.326;2022-10-31T17:01:17;19.48;;;9.02;;
17794;SDS011;9021;50.882;4.326;2022-10-31T17:03:42;21.83;;;8.80;;
17794;SDS011;9021;50.882;4.326;2022-10-31T17:06:12;15.05;;;7.70;;
17794;SDS011;9021;50.882;4.326;2022-10-31T17:08:38;15.00;;;8.48;;
17794;SDS011;9021;50.882;4.326;2022-10-31T17:11:04;13.70;;;8.52;;
17794;SDS011;9021;50.882;4.326;2022-10-31T17:13:30;15.68;;;8.40;;
17794;SDS011;9021;50.882;4.326;2022-10-31T17:15:59;13.82;;;7.97;;
17794;SDS011;9021;50.882;4.326;2022-10-31T17:18:26;14.18;;;6.97;;
17794;SDS011;9021;50.882;4.326;2022-10-31T17:20:56;10.50;;;5.95;;
17794;SDS011;9021;50.882;4.326;2022-10-31T17:23:23;12.48;;;5.72;;
17794;SDS011;9021;50.882;4.326;2022-10-31T17:28:15;15.38;;;5.45;;
17794;SDS011;9021;50.882;4.326;2022-10-31T17:30:41;10.43;;;5.05;;
17794;SDS011;9021;50.882;4.326;2022-10-31T17:33:14;12.65;;;5.82;;
17794;SDS011;9021;50.882;4.326;2022-10-31T17:35:41;12.68;;;5.60;;
17794;SDS011;9021;50.882;4.326;2022-10-31T17:38:07;11.27;;;5.60;;
17794;SDS011;9021;50.882;4.326;2022-10-31T17:40:33;11.82;;;5.03;;
17794;SDS011;9021;50.882;4.326;2022-10-31T17:42:58;10.88;;;5.15;;
17794;SDS011;9021;50.882;4.326;2022-10-31T17:45:24;12.35;;;4.75;;
17794;SDS011;9021;50.882;4.326;2022-10-31T17:47:51;11.50;;;4.68;;
17794;SDS011;9021;50.882;4.326;2022-10-31T17:50:19;11.32;;;5.00;;
17794;SDS011;9021;50.882;4.326;2022-10-31T17:52:46;8.00;;;4.63;;
17794;SDS011;9021;50.882;4.326;2022-10-31T17:55:13;9.25;;;4.80;;
17794;SDS011;9021;50.882;4.326;2022-10-31T17:57:39;9.88;;;5.22;;
17794;SDS011;9021;50.882;4.326;2022-10-31T18:00:05;13.10;;;5.47;;
17794;SDS011;9021;50.882;4.326;2022-10-31T18:02:32;9.38;;;4.80;;
17794;SDS011;9021;50.882;4.326;2022-10-31T18:04:59;9.73;;;4.45;;
17794;SDS011;9021;50.882;4.326;2022-10-31T18:07:26;13.90;;;5.05;;
17794;SDS011;9021;50.882;4.326;2022-10-31T18:12:18;21.42;;;4.85;;